createdAt,value
2023-05-19T00:04:40.157Z,6.50
2023-05-19T00:10:02.701Z,8.00
2023-05-19T00:15:24.441Z,7.90
2023-05-19T00:20:47.820Z,7.90
2023-05-19T00:26:10.019Z,11.70
2023-05-19T00:31:36.751Z,14.10
2023-05-19T00:37:00.682Z,13.70
2023-05-19T00:42:22.413Z,19.30
2023-05-19T00:47:44.407Z,17.50
2023-05-19T00:53:06.034Z,15.90
2023-05-19T00:58:31.551Z,15.90
2023-05-19T01:03:53.722Z,11.70
2023-05-19T01:09:16.767Z,8.20
2023-05-19T01:14:38.473Z,9.00
2023-05-19T01:20:22.089Z,8.90
2023-05-19T01:25:55.663Z,6.20
2023-05-19T01:31:18.748Z,8.70
2023-05-19T01:36:42.109Z,13.30
2023-05-19T01:42:04.596Z,14.10
2023-05-19T01:47:26.537Z,9.90
2023-05-19T01:52:48.604Z,8.80
2023-05-19T01:58:41.686Z,9.30
2023-05-19T02:04:18.702Z,6.30
2023-05-19T02:09:56.306Z,8.10
2023-05-19T02:15:21.904Z,8.40
2023-05-19T02:20:43.722Z,8.00
2023-05-19T02:26:05.533Z,9.30
2023-05-19T02:31:31.910Z,5.90
2023-05-19T02:36:53.993Z,9.10
2023-05-19T02:42:18.257Z,12.50
2023-05-19T02:47:41.687Z,16.00
2023-05-19T02:53:04.430Z,12.60
2023-05-19T02:58:26.013Z,10.00
2023-05-19T03:03:47.649Z,8.00
2023-05-19T03:09:10.679Z,8.60
2023-05-19T03:14:34.086Z,8.70
2023-05-19T03:19:55.925Z,6.80
2023-05-19T03:25:17.682Z,11.40
2023-05-19T03:30:39.531Z,8.00
2023-05-19T03:36:08.810Z,6.30
2023-05-19T03:41:33.059Z,6.10
2023-05-19T03:46:56.053Z,6.80
2023-05-19T03:52:38.709Z,9.00
2023-05-19T03:58:14.690Z,6.00
2023-05-19T04:03:36.409Z,9.50
2023-05-19T04:08:58.142Z,7.00
2023-05-19T04:14:20.474Z,10.10
2023-05-19T04:19:42.226Z,7.60
2023-05-19T04:25:05.169Z,9.00
2023-05-19T04:30:28.703Z,9.00
2023-05-19T04:35:51.816Z,7.40
2023-05-19T04:41:13.987Z,11.20
2023-05-19T04:46:36.227Z,9.40
2023-05-19T04:51:58.648Z,9.70
2023-05-19T04:57:22.934Z,11.20
2023-05-19T05:02:45.476Z,9.80
2023-05-19T05:08:07.817Z,9.20
2023-05-19T05:13:33.169Z,8.60
2023-05-19T05:18:56.128Z,13.00
2023-05-19T05:24:18.520Z,9.70
2023-05-19T05:29:44.803Z,10.30
2023-05-19T05:35:07.468Z,10.80
2023-05-19T05:40:30.114Z,10.80
2023-05-19T05:45:52.569Z,10.90
2023-05-19T05:51:15.587Z,12.60
2023-05-19T05:56:37.514Z,15.50
2023-05-19T06:02:01.070Z,16.10
2023-05-19T06:07:24.583Z,15.10
2023-05-19T06:12:46.514Z,18.00
2023-05-19T06:18:09.004Z,16.30
2023-05-19T06:23:31.281Z,14.40
2023-05-19T06:28:53.483Z,14.90
2023-05-19T06:34:17.790Z,14.90
2023-05-19T06:39:40.204Z,14.10
2023-05-19T06:45:02.145Z,15.60
2023-05-19T06:50:25.340Z,18.00
2023-05-19T06:55:58.753Z,15.10
2023-05-19T07:01:22.850Z,16.40
2023-05-19T07:06:50.386Z,21.20
2023-05-19T07:12:12.546Z,15.00
2023-05-19T07:17:34.614Z,15.00
2023-05-19T07:22:56.310Z,19.90
2023-05-19T07:28:18.278Z,20.50
2023-05-19T07:33:39.866Z,19.00
2023-05-19T07:39:01.646Z,19.10
2023-05-19T07:44:23.703Z,18.60
2023-05-19T07:49:45.749Z,19.40
2023-05-19T07:55:07.737Z,13.90
2023-05-19T08:00:29.770Z,16.20
2023-05-19T08:05:51.617Z,16.00
2023-05-19T08:11:13.424Z,18.30
2023-05-19T08:16:35.303Z,27.00
2023-05-19T08:21:57.685Z,15.30
2023-05-19T08:27:21.649Z,15.90
2023-05-19T08:32:43.592Z,13.70
2023-05-19T08:38:05.507Z,14.50
2023-05-19T08:43:30.266Z,13.90
2023-05-19T08:48:58.172Z,16.20
2023-05-19T08:54:20.944Z,15.20
2023-05-19T08:59:43.954Z,15.90
2023-05-19T09:05:06.165Z,16.20
2023-05-19T09:10:29.225Z,17.90
2023-05-19T09:15:52.938Z,20.70
2023-05-19T09:21:16.460Z,18.70
2023-05-19T09:26:42.127Z,22.70
2023-05-19T09:32:05.474Z,38.30
2023-05-19T09:37:28.054Z,43.30
2023-05-19T09:42:49.696Z,33.40
2023-05-19T09:48:11.777Z,26.10
2023-05-19T09:53:35.014Z,25.10
2023-05-19T09:58:57.369Z,30.10
2023-05-19T10:04:18.886Z,29.80
2023-05-19T10:09:41.847Z,34.20
2023-05-19T10:15:03.631Z,36.60
2023-05-19T10:20:27.039Z,29.70
2023-05-19T10:25:49.633Z,30.40
2023-05-19T10:31:13.841Z,29.70
2023-05-19T10:36:48.580Z,26.00
2023-05-19T10:42:19.741Z,28.00
2023-05-19T10:47:42.188Z,23.20
2023-05-19T10:53:03.710Z,24.10
2023-05-19T10:58:43.890Z,26.60
2023-05-19T11:04:12.389Z,17.90
2023-05-19T11:09:40.905Z,25.20
2023-05-19T11:15:03.332Z,23.20
2023-05-19T11:20:26.940Z,18.50
2023-05-19T11:25:54.007Z,23.60
2023-05-19T11:31:16.172Z,25.80
2023-05-19T11:36:40.159Z,17.60
2023-05-19T11:42:02.188Z,21.70
2023-05-19T11:47:24.090Z,22.00
2023-05-19T11:52:47.543Z,18.70
2023-05-19T11:58:09.373Z,22.10
2023-05-19T12:03:33.306Z,17.00
2023-05-19T12:08:55.570Z,20.20
2023-05-19T12:14:18.097Z,19.60
2023-05-19T12:19:41.722Z,15.60
2023-05-19T12:25:05.365Z,16.40
2023-05-19T12:30:31.966Z,16.70
2023-05-19T12:35:54.624Z,14.10
2023-05-19T12:41:17.519Z,15.90
2023-05-19T12:46:40.531Z,28.00
2023-05-19T12:52:11.903Z,33.00
2023-05-19T12:57:36.504Z,19.50
2023-05-19T13:03:06.812Z,21.20
2023-05-19T13:08:29.900Z,15.40
2023-05-19T13:13:51.949Z,18.30
2023-05-19T13:19:24.867Z,23.10
2023-05-19T13:24:48.364Z,19.30
2023-05-19T13:30:10.453Z,19.30
2023-05-19T13:35:37.659Z,20.40
2023-05-19T13:40:59.958Z,24.40
2023-05-19T13:46:29.511Z,28.90
2023-05-19T13:51:58.852Z,31.90
2023-05-19T13:57:24.501Z,23.30
2023-05-19T14:02:46.592Z,22.30
2023-05-19T14:08:09.459Z,20.50
2023-05-19T14:13:36.273Z,21.20
2023-05-19T14:19:04.312Z,49.60
2023-05-19T14:24:26.697Z,38.80
2023-05-19T14:29:49.247Z,31.10
2023-05-19T14:35:14.374Z,21.00
2023-05-19T14:40:41.461Z,23.30
2023-05-19T14:46:03.398Z,22.50
2023-05-19T14:51:28.260Z,25.90
2023-05-19T14:56:50.400Z,25.40
2023-05-19T15:02:12.830Z,25.50
2023-05-19T15:07:35.269Z,22.90
2023-05-19T15:12:57.899Z,16.70
2023-05-19T15:18:19.763Z,13.00
2023-05-19T15:23:41.441Z,14.90
2023-05-19T15:29:03.898Z,16.30
2023-05-19T15:34:26.518Z,18.40
2023-05-19T15:39:48.743Z,17.00
2023-05-19T15:45:10.544Z,12.80
2023-05-19T15:50:33.443Z,12.00
2023-05-19T15:55:57.660Z,13.60
2023-05-19T16:01:19.974Z,14.50
2023-05-19T16:06:41.907Z,16.40
2023-05-19T16:12:04.237Z,17.40
2023-05-19T16:17:28.766Z,15.90
2023-05-19T16:22:50.607Z,14.10
2023-05-19T16:28:14.849Z,12.40
2023-05-19T16:33:36.814Z,16.30
2023-05-19T16:38:59.021Z,12.20
2023-05-19T16:44:20.941Z,14.50
2023-05-19T16:49:42.499Z,22.70
2023-05-19T16:55:05.883Z,19.90
2023-05-19T17:00:29.519Z,19.80
2023-05-19T17:05:51.372Z,24.80
2023-05-19T17:11:13.904Z,16.40
2023-05-19T17:16:36.478Z,17.20
2023-05-19T17:21:58.351Z,17.60
2023-05-19T17:27:20.486Z,23.80
2023-05-19T17:32:42.363Z,28.20
2023-05-19T17:38:07.969Z,23.10
2023-05-19T17:43:30.081Z,25.70
2023-05-19T17:48:53.652Z,23.20
2023-05-19T17:54:15.957Z,27.50
2023-05-19T17:59:38.013Z,38.60
2023-05-19T18:05:01.238Z,39.00
2023-05-19T18:10:25.853Z,40.00
2023-05-19T18:15:48.177Z,35.80
2023-05-19T18:21:14.659Z,36.50
2023-05-19T18:26:42.083Z,29.60
2023-05-19T18:32:04.671Z,28.00
2023-05-19T18:37:27.335Z,29.70
2023-05-19T18:42:49.202Z,33.90
2023-05-19T18:48:11.342Z,37.90
2023-05-19T18:53:34.827Z,45.30
2023-05-19T18:58:57.591Z,55.30
2023-05-19T19:04:20.608Z,44.60
2023-05-19T19:09:43.994Z,33.10
2023-05-19T19:15:06.603Z,24.10
2023-05-19T19:20:28.791Z,25.70
2023-05-19T19:25:51.058Z,29.60
2023-05-19T19:31:12.639Z,26.80
2023-05-19T19:36:37.611Z,32.40
2023-05-19T19:41:59.783Z,31.80
2023-05-19T19:47:21.857Z,36.60
2023-05-19T19:52:46.845Z,35.60
2023-05-19T19:58:08.990Z,34.20
2023-05-19T20:03:31.949Z,32.10
2023-05-19T20:08:53.707Z,36.00
2023-05-19T20:14:18.926Z,32.60
2023-05-19T20:19:40.756Z,24.00
2023-05-19T20:25:04.163Z,25.90
2023-05-19T20:30:29.259Z,25.70
2023-05-19T20:35:51.388Z,31.90
2023-05-19T20:41:13.993Z,25.10
2023-05-19T20:46:35.770Z,27.50
2023-05-19T20:51:59.983Z,26.90
2023-05-19T20:57:26.140Z,29.40
2023-05-19T21:02:50.344Z,24.10
2023-05-19T21:08:16.893Z,26.80
2023-05-19T21:13:39.425Z,23.50
2023-05-19T21:19:02.092Z,28.70
2023-05-19T21:24:23.967Z,27.60
2023-05-19T21:29:46.190Z,37.10
2023-05-19T21:35:08.227Z,27.70
2023-05-19T21:40:30.573Z,24.00
2023-05-19T21:45:52.319Z,19.80
2023-05-19T21:51:14.226Z,23.70
2023-05-19T21:56:36.390Z,24.00
2023-05-19T22:01:58.926Z,25.30
2023-05-19T22:07:26.976Z,26.60
2023-05-19T22:12:49.119Z,21.90
2023-05-19T22:18:11.897Z,25.90
2023-05-19T22:23:33.868Z,28.30
2023-05-19T22:28:55.808Z,24.20
2023-05-19T22:34:19.924Z,26.60
2023-05-19T22:39:41.944Z,29.50
2023-05-19T22:45:03.978Z,29.70
2023-05-19T22:50:26.157Z,29.30
2023-05-19T22:55:47.709Z,28.50
2023-05-19T23:01:09.636Z,24.90
2023-05-19T23:06:31.670Z,26.20
2023-05-19T23:11:56.561Z,27.30
2023-05-19T23:17:18.076Z,26.60
2023-05-19T23:22:39.699Z,29.60
2023-05-19T23:28:01.632Z,28.00
2023-05-19T23:33:23.212Z,30.10
2023-05-19T23:38:45.155Z,29.50
2023-05-19T23:44:08.637Z,31.70
2023-05-19T23:49:30.670Z,32.30
2023-05-19T23:54:52.155Z,31.70
